createdAt,value
2023-03-13T00:00:19.200Z,6.06
2023-03-13T00:01:20.113Z,5.99
2023-03-13T00:02:20.833Z,6.01
2023-03-13T00:03:20.677Z,5.99
2023-03-13T00:04:21.626Z,6.15
2023-03-13T00:05:23.255Z,6.1
2023-03-13T00:06:23.661Z,6.07
2023-03-13T00:07:24.178Z,6.06
2023-03-13T00:08:23.813Z,6.06
2023-03-13T00:09:25.299Z,6.02
2023-03-13T00:10:25.718Z,6.02
2023-03-13T00:11:26.643Z,6.05
2023-03-13T00:12:28.011Z,6.06
2023-03-13T00:13:28.516Z,5.99
2023-03-13T00:14:28.463Z,5.91
2023-03-13T00:15:28.945Z,6.06
2023-03-13T00:16:30.216Z,5.99
2023-03-13T00:17:30.063Z,5.9
2023-03-13T00:18:30.420Z,5.91
2023-03-13T00:19:31.902Z,5.91
2023-03-13T00:20:33.047Z,5.92
2023-03-13T00:21:33.043Z,5.95
2023-03-13T00:22:34.053Z,5.91
2023-03-13T00:23:34.285Z,5.95
2023-03-13T00:24:34.498Z,5.8
2023-03-13T00:25:34.985Z,5.9
2023-03-13T00:26:35.335Z,5.84
2023-03-13T00:27:35.976Z,5.83
2023-03-13T00:28:38.617Z,5.77
2023-03-13T00:29:37.642Z,5.79
2023-03-13T00:30:38.998Z,5.8
2023-03-13T00:31:39.310Z,5.76
2023-03-13T00:32:39.491Z,5.76
2023-03-13T00:33:39.924Z,5.77
2023-03-13T00:34:40.408Z,5.83
2023-03-13T00:35:41.668Z,5.83
2023-03-13T00:36:42.014Z,5.77
2023-03-13T00:37:42.953Z,5.87
2023-03-13T00:38:43.170Z,5.83
2023-03-13T00:39:43.434Z,5.84
2023-03-13T00:40:44.751Z,5.83
2023-03-13T00:41:45.671Z,5.84
2023-03-13T00:42:45.317Z,5.92
2023-03-13T00:43:46.963Z,5.83
2023-03-13T00:44:47.521Z,5.91
2023-03-13T00:45:48.248Z,5.92
2023-03-13T00:46:48.578Z,5.92
2023-03-13T00:47:49.787Z,5.88
2023-03-13T00:48:50.709Z,5.92
2023-03-13T00:49:50.919Z,5.87
2023-03-13T00:50:51.329Z,5.95
2023-03-13T00:51:51.586Z,5.98
2023-03-13T00:52:52.789Z,5.95
2023-03-13T00:53:53.858Z,5.94
2023-03-13T00:54:54.095Z,5.94
2023-03-13T00:55:55.311Z,5.97
2023-03-13T00:56:55.801Z,5.97
2023-03-13T00:57:56.722Z,6.06
2023-03-13T00:58:57.233Z,6.05
2023-03-13T00:59:57.452Z,5.91
2023-03-13T01:00:57.769Z,6.06
2023-03-13T01:01:58.747Z,6.1
2023-03-13T01:02:59.648Z,6.12
2023-03-13T01:03:59.758Z,6.07
2023-03-13T01:05:00.500Z,6.12
2023-03-13T01:06:01.795Z,6.05
2023-03-13T01:07:02.437Z,6.01
2023-03-13T01:08:02.921Z,6.12
2023-03-13T01:09:02.569Z,6.01
2023-03-13T01:10:03.797Z,6.13
2023-03-13T01:11:04.544Z,6.1
2023-03-13T01:12:05.503Z,6.12
2023-03-13T01:13:06.706Z,6.12
2023-03-13T01:14:07.299Z,6.16
2023-03-13T01:15:08.224Z,6.19
2023-03-13T01:16:08.447Z,6.17
2023-03-13T01:17:08.362Z,6.12
2023-03-13T01:18:08.307Z,6.19
2023-03-13T01:19:13.464Z,6.25
2023-03-13T01:20:10.064Z,6.17
2023-03-13T01:21:10.451Z,6.25
2023-03-13T01:22:10.984Z,6.17
2023-03-13T01:23:11.184Z,6.2
2023-03-13T01:24:12.143Z,6.16
2023-03-13T01:25:12.359Z,6.25
2023-03-13T01:26:12.564Z,6.19
2023-03-13T01:27:13.530Z,6.26
2023-03-13T01:28:14.025Z,6.12
2023-03-13T01:29:13.985Z,6.2
2023-03-13T01:30:14.899Z,6.12
2023-03-13T01:31:15.912Z,6.1
2023-03-13T01:32:16.571Z,6.2
2023-03-13T01:33:17.622Z,6.19
2023-03-13T01:34:17.856Z,6.13
2023-03-13T01:35:18.086Z,6.22
2023-03-13T01:36:18.893Z,6.26
2023-03-13T01:37:19.257Z,6.26
2023-03-13T01:38:19.463Z,6.2
2023-03-13T01:39:20.086Z,6.22
2023-03-13T01:40:21.001Z,6.2
2023-03-13T01:41:22.051Z,6.25
2023-03-13T01:42:22.054Z,6.19
2023-03-13T01:43:32.508Z,6.2
2023-03-13T01:44:23.733Z,6.17
2023-03-13T01:45:24.084Z,6.2
2023-03-13T01:46:25.857Z,6.12
2023-03-13T01:47:26.055Z,6.12
2023-03-13T01:48:26.258Z,6.13
2023-03-13T01:49:26.897Z,6.12
2023-03-13T01:50:28.103Z,6.13
2023-03-13T01:51:28.951Z,5.98
2023-03-13T01:52:29.212Z,6.07
2023-03-13T01:53:30.192Z,5.92
2023-03-13T01:54:31.111Z,6.01
2023-03-13T01:55:31.302Z,5.9
2023-03-13T01:56:31.229Z,5.84
2023-03-13T01:57:31.143Z,5.83
2023-03-13T01:58:32.500Z,5.79
2023-03-13T01:59:33.765Z,5.79
2023-03-13T02:00:34.716Z,5.79
2023-03-13T02:01:34.781Z,5.83
2023-03-13T02:02:35.262Z,5.77
2023-03-13T02:03:35.993Z,5.79
2023-03-13T02:04:36.204Z,5.77
2023-03-13T02:05:36.413Z,5.83
2023-03-13T02:06:37.422Z,5.77
2023-03-13T02:07:37.953Z,5.84
2023-03-13T02:08:38.455Z,5.87
2023-03-13T02:09:38.747Z,5.83
2023-03-13T02:10:38.676Z,5.88
2023-03-13T02:11:39.669Z,5.84
2023-03-13T02:12:39.874Z,5.84
2023-03-13T02:13:40.280Z,5.9
2023-03-13T02:14:41.202Z,5.87
2023-03-13T02:15:41.775Z,5.84
2023-03-13T02:16:42.386Z,5.84
2023-03-13T02:17:43.024Z,5.92
2023-03-13T02:18:43.219Z,5.9
2023-03-13T02:19:43.223Z,5.87
2023-03-13T02:20:44.165Z,5.83
2023-03-13T02:21:44.874Z,5.83
2023-03-13T02:22:45.407Z,5.91
2023-03-13T02:23:45.898Z,5.94
2023-03-13T02:24:46.512Z,5.88
2023-03-13T02:25:47.025Z,5.99
2023-03-13T02:26:47.239Z,5.92
2023-03-13T02:27:47.974Z,5.91
2023-03-13T02:28:48.313Z,6.02
2023-03-13T02:29:49.257Z,5.95
2023-03-13T02:30:49.643Z,5.92
2023-03-13T02:31:50.377Z,5.99
2023-03-13T02:32:50.533Z,6.06
2023-03-13T02:33:51.053Z,5.95
2023-03-13T02:34:50.973Z,6.1
2023-03-13T02:35:51.764Z,5.94
2023-03-13T02:36:52.471Z,6.01
2023-03-13T02:37:53.004Z,5.94
2023-03-13T02:38:53.236Z,5.94
2023-03-13T02:39:54.199Z,6.05
2023-03-13T02:40:54.124Z,5.99
2023-03-13T02:41:55.181Z,5.99
2023-03-13T02:42:55.120Z,5.84
2023-03-13T02:43:55.347Z,5.84
2023-03-13T02:44:56.549Z,5.88
2023-03-13T02:45:57.470Z,5.92
2023-03-13T02:46:58.211Z,5.92
2023-03-13T02:47:58.188Z,5.84
2023-03-13T02:48:58.409Z,5.91
2023-03-13T02:49:58.924Z,5.9
2023-03-13T02:50:59.415Z,5.92
2023-03-13T02:52:00.644Z,6.01
2023-03-13T02:53:01.179Z,6.01
2023-03-13T02:54:01.120Z,5.99
2023-03-13T02:55:02.033Z,5.94
2023-03-13T02:56:03.256Z,5.94
2023-03-13T02:57:03.228Z,5.88
2023-03-13T02:58:03.736Z,5.88
2023-03-13T02:59:03.989Z,5.87
2023-03-13T03:00:04.206Z,5.81
2023-03-13T03:01:05.409Z,5.81
2023-03-13T03:02:05.805Z,5.83
2023-03-13T03:03:06.719Z,5.8
2023-03-13T03:04:08.198Z,5.74
2023-03-13T03:05:08.092Z,5.79
2023-03-13T03:06:09.038Z,5.8
2023-03-13T03:07:10.316Z,5.81
2023-03-13T03:08:10.675Z,5.77
2023-03-13T03:09:11.313Z,5.76
2023-03-13T03:10:12.240Z,5.8
2023-03-13T03:11:12.737Z,5.8
2023-03-13T03:12:13.033Z,5.9
2023-03-13T03:13:13.665Z,5.88
2023-03-13T03:14:14.884Z,5.84
2023-03-13T03:15:14.798Z,5.81
2023-03-13T03:16:16.208Z,5.91
2023-03-13T03:17:16.546Z,5.9
2023-03-13T03:18:17.045Z,5.92
2023-03-13T03:19:16.969Z,6.02
2023-03-13T03:20:18.013Z,5.91
2023-03-13T03:21:18.211Z,5.99
2023-03-13T03:22:19.321Z,6.06
2023-03-13T03:23:19.843Z,6.06
2023-03-13T03:24:20.233Z,6.13
2023-03-13T03:25:20.897Z,6.12
2023-03-13T03:26:21.818Z,6.09
2023-03-13T03:27:22.784Z,6.12
2023-03-13T03:28:23.685Z,6.05
2023-03-13T03:29:23.665Z,6.06
2023-03-13T03:30:24.592Z,6.02
2023-03-13T03:31:25.454Z,6.1
2023-03-13T03:32:26.306Z,6.1
2023-03-13T03:33:26.441Z,6.1
2023-03-13T03:34:27.646Z,6.07
2023-03-13T03:35:28.161Z,6.02
2023-03-13T03:36:28.649Z,5.98
2023-03-13T03:37:29.930Z,6.13
2023-03-13T03:38:30.200Z,6.07
2023-03-13T03:39:31.402Z,6.16
2023-03-13T03:40:31.347Z,6.02
2023-03-13T03:41:32.279Z,6.13
2023-03-13T03:42:32.709Z,6.06
2023-03-13T03:43:33.412Z,5.98
2023-03-13T03:44:34.633Z,6.01
2023-03-13T03:45:35.486Z,6.13
2023-03-13T03:46:35.836Z,6.15
2023-03-13T03:47:36.693Z,6.16
2023-03-13T03:48:37.028Z,6.12
2023-03-13T03:49:38.005Z,6.2
2023-03-13T03:50:38.691Z,6.25
2023-03-13T03:51:38.949Z,6.16
2023-03-13T03:52:40.337Z,6.15
2023-03-13T03:53:40.357Z,6.2
2023-03-13T03:54:41.586Z,6.2
2023-03-13T03:55:41.583Z,6.1
2023-03-13T03:56:42.875Z,6.07
2023-03-13T03:57:42.788Z,6.16
2023-03-13T03:58:42.731Z,6.1
2023-03-13T03:59:44.225Z,6.17
2023-03-13T04:00:44.419Z,6.15
2023-03-13T04:01:44.347Z,5.99
2023-03-13T04:02:44.580Z,6.02
2023-03-13T04:03:46.206Z,6.06
2023-03-13T04:04:46.205Z,6.02
2023-03-13T04:05:46.841Z,6.07
2023-03-13T04:06:47.352Z,6.16
2023-03-13T04:07:48.346Z,6.15
2023-03-13T04:08:48.601Z,6.01
2023-03-13T04:09:49.516Z,6.02
2023-03-13T04:10:50.499Z,6.06
2023-03-13T04:11:50.715Z,6.01
2023-03-13T04:12:51.729Z,6.12
2023-03-13T04:13:52.656Z,5.99
2023-03-13T04:14:53.146Z,6.01
2023-03-13T04:15:53.436Z,6.09
2023-03-13T04:16:54.290Z,6.09
2023-03-13T04:17:54.189Z,6.12
2023-03-13T04:18:54.548Z,6.17
2023-03-13T04:19:55.452Z,6.13
2023-03-13T04:20:56.664Z,6.2
2023-03-13T04:21:56.887Z,6.15
2023-03-13T04:22:57.998Z,6.25
2023-03-13T04:23:58.539Z,6.22
2023-03-13T04:24:58.190Z,6.34
2023-03-13T04:25:59.102Z,6.31
2023-03-13T04:26:59.590Z,6.25
2023-03-13T04:27:59.973Z,6.28
2023-03-13T04:29:00.620Z,6.2
2023-03-13T04:30:01.560Z,6.29
2023-03-13T04:31:01.776Z,6.31
2023-03-13T04:32:02.501Z,6.22
2023-03-13T04:33:03.473Z,6.35
2023-03-13T04:34:03.729Z,6.31
2023-03-13T04:35:03.888Z,6.26
2023-03-13T04:36:04.443Z,6.34
2023-03-13T04:37:04.821Z,6.22
2023-03-13T04:38:05.185Z,6.2
2023-03-13T04:39:05.713Z,6.16
2023-03-13T04:40:05.917Z,6.19
2023-03-13T04:41:06.852Z,6.05
2023-03-13T04:42:07.766Z,6.1
2023-03-13T04:43:08.389Z,6.17
2023-03-13T04:44:09.184Z,6.06
2023-03-13T04:45:10.123Z,6.16
2023-03-13T04:46:11.014Z,6.17
2023-03-13T04:47:11.829Z,6.12
2023-03-13T04:48:13.043Z,6.22
2023-03-13T04:49:15.008Z,6.19
2023-03-13T04:50:14.201Z,6.2
2023-03-13T04:51:14.883Z,6.17
2023-03-13T04:52:15.538Z,6.15
2023-03-13T04:53:17.043Z,6.22
2023-03-13T04:54:17.321Z,6.25
2023-03-13T04:55:18.253Z,6.31
2023-03-13T04:56:24.703Z,6.28
2023-03-13T04:57:19.341Z,6.34
2023-03-13T04:58:19.301Z,6.38
2023-03-13T04:59:19.750Z,6.28
2023-03-13T05:00:20.673Z,6.26
2023-03-13T05:01:21.734Z,6.38
2023-03-13T05:02:21.913Z,6.29
2023-03-13T05:03:23.306Z,6.2
2023-03-13T05:04:23.923Z,6.36
2023-03-13T05:05:24.859Z,6.35
2023-03-13T05:06:26.008Z,6.38
2023-03-13T05:07:25.934Z,6.32
2023-03-13T05:08:26.925Z,6.35
2023-03-13T05:09:27.181Z,6.41
2023-03-13T05:10:27.797Z,6.36
2023-03-13T05:11:28.012Z,6.43
2023-03-13T05:12:29.246Z,6.44
2023-03-13T05:13:30.278Z,6.43
2023-03-13T05:14:30.923Z,6.5
2023-03-13T05:15:31.996Z,6.5
2023-03-13T05:16:32.859Z,6.53
2023-03-13T05:17:33.353Z,6.6
2023-03-13T05:18:33.551Z,6.47
2023-03-13T05:19:34.774Z,6.59
2023-03-13T05:20:35.264Z,6.56
2023-03-13T05:21:35.284Z,6.65
2023-03-13T05:22:35.939Z,6.62
2023-03-13T05:23:37.342Z,6.64
2023-03-13T05:24:38.708Z,6.59
2023-03-13T05:25:38.581Z,6.6
2023-03-13T05:26:38.806Z,6.7
2023-03-13T05:27:39.341Z,6.62
2023-03-13T05:28:39.615Z,6.59
2023-03-13T05:29:40.117Z,6.53
2023-03-13T05:30:40.803Z,6.72
2023-03-13T05:31:41.020Z,6.7
2023-03-13T05:32:41.378Z,6.62
2023-03-13T05:33:41.528Z,6.68
2023-03-13T05:34:42.531Z,6.74
2023-03-13T05:35:42.957Z,6.7
2023-03-13T05:36:43.262Z,6.8
2023-03-13T05:37:47.144Z,6.7
2023-03-13T05:38:44.424Z,6.8
2023-03-13T05:39:45.024Z,6.8
2023-03-13T05:40:45.655Z,6.78
2023-03-13T05:41:46.604Z,6.78
2023-03-13T05:42:46.827Z,6.8
2023-03-13T05:43:47.869Z,6.83
2023-03-13T05:44:48.241Z,6.78
2023-03-13T05:45:48.603Z,6.74
2023-03-13T05:46:49.751Z,6.68
2023-03-13T05:47:50.248Z,6.77
2023-03-13T05:48:50.745Z,6.68
2023-03-13T05:49:51.375Z,6.68
2023-03-13T05:50:52.027Z,6.68
2023-03-13T05:51:53.226Z,6.74
2023-03-13T05:52:54.171Z,6.77
2023-03-13T05:53:54.888Z,6.85
2023-03-13T05:54:55.140Z,6.87
2023-03-13T05:55:56.069Z,6.86
2023-03-13T05:56:56.273Z,6.89
2023-03-13T05:57:57.173Z,6.87
2023-03-13T05:58:57.102Z,6.86
2023-03-13T05:59:57.744Z,6.85
2023-03-13T06:00:57.956Z,6.83
2023-03-13T06:01:57.712Z,6.86
2023-03-13T06:02:58.644Z,6.89
2023-03-13T06:03:59.782Z,6.93
2023-03-13T06:05:00.611Z,7
2023-03-13T06:05:59.934Z,6.93
2023-03-13T06:07:00.877Z,7.04
2023-03-13T06:08:01.502Z,7.01
2023-03-13T06:09:03.072Z,7.05
2023-03-13T06:10:03.622Z,7.05
2023-03-13T06:11:04.292Z,7.07
2023-03-13T06:12:04.812Z,7.14
2023-03-13T06:13:20.535Z,7.1
2023-03-13T06:14:08.581Z,7.13
2023-03-13T06:15:12.272Z,7.13
2023-03-13T06:16:09.462Z,7.13
2023-03-13T06:17:09.788Z,7.1
2023-03-13T06:18:09.988Z,7.18
2023-03-13T06:19:10.914Z,7.13
2023-03-13T06:20:11.549Z,7.21
2023-03-13T06:21:13.056Z,7.18
2023-03-13T06:22:13.718Z,7.21
2023-03-13T06:23:14.363Z,7.19
2023-03-13T06:24:15.056Z,7.14
2023-03-13T06:25:15.035Z,7.22
2023-03-13T06:26:16.530Z,7.21
2023-03-13T06:27:16.725Z,7.18
2023-03-13T06:28:17.229Z,7.23
2023-03-13T06:29:17.180Z,7.29
2023-03-13T06:30:17.676Z,7.28
2023-03-13T06:31:18.487Z,7.4
2023-03-13T06:32:18.493Z,7.44
2023-03-13T06:33:19.449Z,7.39
2023-03-13T06:34:19.723Z,7.36
2023-03-13T06:35:20.417Z,7.39
2023-03-13T06:36:20.965Z,7.41
2023-03-13T06:37:20.738Z,7.44
2023-03-13T06:38:21.707Z,7.41
2023-03-13T06:39:22.007Z,7.44
2023-03-13T06:40:22.332Z,7.47
2023-03-13T06:41:22.547Z,7.5
2023-03-13T06:42:22.837Z,7.58
2023-03-13T06:43:24.080Z,7.55
2023-03-13T06:44:24.118Z,7.53
2023-03-13T06:45:24.672Z,7.56
2023-03-13T06:46:25.099Z,7.59
2023-03-13T06:47:25.208Z,7.56
2023-03-13T06:48:26.136Z,7.74
2023-03-13T06:49:26.779Z,7.61
2023-03-13T06:50:26.997Z,7.67
2023-03-13T06:51:28.212Z,7.69
2023-03-13T06:52:44.364Z,7.7
2023-03-13T06:53:29.759Z,7.69
2023-03-13T06:54:30.631Z,7.75
2023-03-13T06:55:30.926Z,7.72
2023-03-13T06:56:31.135Z,7.69
2023-03-13T06:57:31.775Z,7.69
2023-03-13T06:58:38.486Z,7.75
2023-03-13T06:59:33.710Z,7.62
2023-03-13T07:00:33.792Z,7.78
2023-03-13T07:01:34.075Z,7.8
2023-03-13T07:02:34.390Z,7.83
2023-03-13T07:03:34.756Z,7.78
2023-03-13T07:04:35.721Z,7.77
2023-03-13T07:05:36.083Z,7.84
2023-03-13T07:06:37.002Z,7.88
2023-03-13T07:07:38.110Z,7.96
2023-03-13T07:08:39.052Z,8.02
2023-03-13T07:09:39.788Z,8.06
2023-03-13T07:10:40.085Z,8.14
2023-03-13T07:11:41.032Z,8.13
2023-03-13T07:12:41.252Z,8.18
2023-03-13T07:13:41.882Z,8.17
2023-03-13T07:14:42.601Z,8.17
2023-03-13T07:15:42.808Z,8.21
2023-03-13T07:16:43.814Z,8.27
2023-03-13T07:17:44.468Z,8.18
2023-03-13T07:18:44.397Z,8.26
2023-03-13T07:19:44.334Z,8.32
2023-03-13T07:20:45.718Z,8.32
2023-03-13T07:21:45.989Z,8.45
2023-03-13T07:22:46.298Z,8.42
2023-03-13T07:23:47.202Z,8.39
2023-03-13T07:24:48.176Z,8.42
2023-03-13T07:25:47.816Z,8.42
2023-03-13T07:27:08.300Z,8.44
2023-03-13T07:27:49.168Z,8.42
2023-03-13T07:28:49.692Z,8.46
2023-03-13T07:29:49.924Z,8.61
2023-03-13T07:30:49.861Z,8.53
2023-03-13T07:31:50.671Z,8.53
2023-03-13T07:32:50.146Z,8.59
2023-03-13T07:33:50.551Z,8.64
2023-03-13T07:34:51.317Z,8.6
2023-03-13T07:35:52.509Z,8.66
2023-03-13T07:36:53.510Z,8.68
2023-03-13T07:37:54.171Z,8.77
2023-03-13T07:38:54.115Z,8.78
2023-03-13T07:39:55.471Z,8.72
2023-03-13T07:40:56.028Z,8.89
2023-03-13T07:41:56.550Z,8.82
2023-03-13T07:42:57.030Z,8.79
2023-03-13T07:43:57.225Z,8.81
2023-03-13T07:44:57.872Z,8.93
2023-03-13T07:45:58.901Z,9
2023-03-13T07:47:00.719Z,9.03
2023-03-13T07:47:59.574Z,9
2023-03-13T07:49:00.274Z,9.11
2023-03-13T07:50:00.750Z,9.09
2023-03-13T07:51:01.371Z,9.09
2023-03-13T07:52:01.663Z,8.97
2023-03-13T07:53:02.423Z,9.02
2023-03-13T07:54:03.162Z,9.02
2023-03-13T07:55:03.987Z,9.13
2023-03-13T07:56:04.278Z,9.11
2023-03-13T07:57:04.340Z,9.09
2023-03-13T07:58:05.739Z,9.16
2023-03-13T07:59:06.818Z,9.27
2023-03-13T08:00:07.674Z,9.29
2023-03-13T08:01:07.220Z,9.27
2023-03-13T08:02:07.675Z,9.36
2023-03-13T08:03:08.654Z,9.36
2023-03-13T08:04:09.367Z,9.47
2023-03-13T08:05:09.508Z,9.56
2023-03-13T08:06:10.015Z,9.73
2023-03-13T08:07:10.844Z,9.73
2023-03-13T08:08:12.208Z,9.91
2023-03-13T08:09:12.475Z,9.94
2023-03-13T08:10:13.268Z,10.09
2023-03-13T08:11:13.654Z,10.07
2023-03-13T08:12:13.747Z,10.1
2023-03-13T08:13:13.980Z,10.24
2023-03-13T08:14:14.558Z,10.28
2023-03-13T08:15:14.852Z,10.2
2023-03-13T08:16:15.082Z,10.12
2023-03-13T08:17:14.885Z,10.06
2023-03-13T08:18:16.107Z,10.09
2023-03-13T08:19:16.781Z,9.99
2023-03-13T08:20:18.054Z,10.06
2023-03-13T08:21:19.169Z,10.02
2023-03-13T08:22:19.531Z,10.06
2023-03-13T08:23:20.817Z,10.09
2023-03-13T08:24:21.033Z,10.15
2023-03-13T08:25:21.732Z,10.13
2023-03-13T08:26:22.404Z,10.12
2023-03-13T08:27:22.411Z,10.12
2023-03-13T08:28:23.635Z,10.1
2023-03-13T08:29:23.268Z,10.06
2023-03-13T08:30:24.470Z,10.07
2023-03-13T08:31:24.902Z,10.03
2023-03-13T08:32:25.759Z,10.03
2023-03-13T08:33:25.842Z,10.07
2023-03-13T08:34:26.780Z,10.06
2023-03-13T08:35:27.961Z,10.07
2023-03-13T08:36:28.727Z,10.06
2023-03-13T08:37:29.231Z,10.1
2023-03-13T08:38:29.296Z,10.13
2023-03-13T08:39:30.510Z,10.21
2023-03-13T08:40:30.800Z,10.12
2023-03-13T08:41:31.565Z,10.07
2023-03-13T08:42:31.771Z,10.21
2023-03-13T08:43:32.708Z,10.23
2023-03-13T08:44:33.964Z,10.1
2023-03-13T08:45:34.634Z,10.17
2023-03-13T08:46:35.612Z,10.17
2023-03-13T08:47:36.286Z,10.1
2023-03-13T08:48:36.510Z,10.25
2023-03-13T08:49:36.446Z,10.15
2023-03-13T08:50:36.939Z,10.25
2023-03-13T08:51:37.877Z,10.27
2023-03-13T08:52:38.123Z,10.27
2023-03-13T08:53:39.070Z,10.27
2023-03-13T08:54:39.626Z,10.34
2023-03-13T08:55:40.390Z,10.39
2023-03-13T08:56:41.050Z,10.42
2023-03-13T08:57:41.316Z,10.48
2023-03-13T08:58:40.974Z,10.46
2023-03-13T08:59:42.214Z,10.43
2023-03-13T09:00:42.434Z,10.41
2023-03-13T09:01:43.376Z,10.49
2023-03-13T09:02:43.763Z,10.43
2023-03-13T09:03:44.687Z,10.48
2023-03-13T09:04:45.153Z,10.45
2023-03-13T09:06:00.863Z,10.45
2023-03-13T09:06:45.842Z,10.53
2023-03-13T09:07:46.871Z,10.58
2023-03-13T09:08:47.089Z,10.53
2023-03-13T09:09:47.161Z,10.59
2023-03-13T09:10:48.443Z,10.64
2023-03-13T09:11:48.846Z,10.59
2023-03-13T09:12:49.349Z,10.67
2023-03-13T09:13:50.269Z,10.65
2023-03-13T09:14:50.783Z,10.72
2023-03-13T09:15:51.044Z,10.76
2023-03-13T09:16:51.690Z,10.77
2023-03-13T09:17:52.252Z,10.84
2023-03-13T09:18:52.490Z,10.83
2023-03-13T09:20:05.373Z,10.97
2023-03-13T09:20:54.736Z,10.95
2023-03-13T09:21:53.964Z,10.86
2023-03-13T09:22:54.625Z,10.87
2023-03-13T09:23:55.909Z,10.87
2023-03-13T09:24:56.200Z,10.98
2023-03-13T09:25:57.000Z,10.95
2023-03-13T09:27:06.873Z,10.9
2023-03-13T09:27:58.421Z,10.9
2023-03-13T09:28:58.628Z,11.02
2023-03-13T09:29:59.010Z,11.05
2023-03-13T09:31:00.110Z,11.22
2023-03-13T09:32:00.612Z,11.37
2023-03-13T09:33:01.463Z,11.6
2023-03-13T09:34:02.119Z,11.78
2023-03-13T09:35:02.053Z,12.03
2023-03-13T09:36:03.153Z,12.2
2023-03-13T09:37:04.338Z,12.39
2023-03-13T09:38:05.291Z,12.7
2023-03-13T09:39:05.574Z,12.86
2023-03-13T09:40:06.598Z,13.26
2023-03-13T09:41:12.392Z,13.42
2023-03-13T09:42:08.134Z,13.6
2023-03-13T09:43:07.842Z,13.76
2023-03-13T09:44:09.093Z,13.93
2023-03-13T09:45:09.325Z,14.19
2023-03-13T09:46:10.280Z,14.38
2023-03-13T09:47:10.980Z,14.51
2023-03-13T09:48:11.255Z,14.62
2023-03-13T09:50:12.633Z,14.9
2023-03-13T09:51:13.395Z,15.04
2023-03-13T09:52:13.893Z,15.1
2023-03-13T09:53:14.568Z,15.11
2023-03-13T09:54:15.811Z,15.18
2023-03-13T09:55:16.050Z,15.04
2023-03-13T09:56:16.633Z,15.02
2023-03-13T09:57:16.972Z,14.9
2023-03-13T09:58:17.734Z,14.78
2023-03-13T09:59:17.963Z,14.99
2023-03-13T10:00:19.218Z,15.05
2023-03-13T10:01:19.526Z,15.1
2023-03-13T10:02:19.931Z,15.18
2023-03-13T10:03:20.630Z,15.29
2023-03-13T10:04:22.137Z,15.52
2023-03-13T10:05:22.544Z,15.69
2023-03-13T10:06:23.217Z,15.81
2023-03-13T10:07:23.795Z,16.16
2023-03-13T10:08:24.176Z,16.47
2023-03-13T10:09:24.823Z,16.77
2023-03-13T10:10:26.068Z,16.98
2023-03-13T10:11:27.384Z,17.07
2023-03-13T10:12:27.930Z,17.34
2023-03-13T10:13:27.894Z,17.54
2023-03-13T10:14:28.420Z,17.79
2023-03-13T10:15:28.670Z,17.97
2023-03-13T10:16:29.446Z,17.97
2023-03-13T10:17:29.943Z,18.18
2023-03-13T10:18:30.917Z,18.28
2023-03-13T10:19:31.593Z,18.42
2023-03-13T10:20:32.115Z,18.71
2023-03-13T10:21:33.070Z,18.78
2023-03-13T10:22:34.010Z,18.89
2023-03-13T10:23:34.078Z,18.94
2023-03-13T10:24:34.424Z,18.83
2023-03-13T10:25:35.050Z,18.85
2023-03-13T10:26:35.880Z,18.92
2023-03-13T10:27:35.984Z,18.78
2023-03-13T10:28:37.057Z,18.82
2023-03-13T10:29:38.413Z,18.78
2023-03-13T10:30:38.639Z,18.76
2023-03-13T10:31:39.319Z,18.58
2023-03-13T10:32:39.670Z,18.63
2023-03-13T10:33:40.076Z,18.52
2023-03-13T10:34:40.036Z,18.46
2023-03-13T10:35:40.450Z,18.41
2023-03-13T10:36:40.840Z,18.39
2023-03-13T10:37:41.047Z,18.37
2023-03-13T10:38:41.716Z,18.28
2023-03-13T10:39:42.798Z,18.31
2023-03-13T10:40:43.435Z,18.48
2023-03-13T10:41:44.045Z,18.39
2023-03-13T10:42:44.334Z,18.45
2023-03-13T10:43:45.546Z,18.73
2023-03-13T10:44:46.261Z,18.83
2023-03-13T10:45:46.914Z,19.08
2023-03-13T10:46:47.709Z,19.34
2023-03-13T10:47:48.213Z,19.57
2023-03-13T10:48:48.491Z,19.63
2023-03-13T10:49:48.754Z,19.77
2023-03-13T10:50:49.729Z,19.99
2023-03-13T10:51:50.725Z,20.02
2023-03-13T10:52:50.996Z,20.19
2023-03-13T10:53:51.367Z,20.26
2023-03-13T10:54:52.602Z,20.39
2023-03-13T10:55:53.151Z,20.67
2023-03-13T10:56:54.338Z,20.63
2023-03-13T10:57:54.908Z,20.77
2023-03-13T10:58:55.161Z,20.88
2023-03-13T10:59:55.411Z,20.95
2023-03-13T11:00:55.768Z,21.04
2023-03-13T11:01:56.282Z,20.98
2023-03-13T11:02:56.730Z,21.07
2023-03-13T11:03:57.425Z,21.04
2023-03-13T11:04:57.834Z,21.04
2023-03-13T11:05:58.202Z,21.03
2023-03-13T11:06:58.966Z,20.88
2023-03-13T11:07:59.944Z,20.71
2023-03-13T11:09:00.249Z,20.68
2023-03-13T11:10:00.809Z,20.55
2023-03-13T11:11:01.076Z,20.4
2023-03-13T11:12:01.804Z,20.46
2023-03-13T11:13:02.267Z,20.36
2023-03-13T11:14:03.255Z,20.44
2023-03-13T11:15:03.969Z,20.58
2023-03-13T11:16:04.321Z,20.73
2023-03-13T11:17:05.263Z,20.89
2023-03-13T11:18:05.988Z,21
2023-03-13T11:19:05.700Z,21.19
2023-03-13T11:20:06.397Z,21.29
2023-03-13T11:21:23.296Z,21.48
2023-03-13T11:22:07.660Z,21.62
2023-03-13T11:23:07.904Z,21.68
2023-03-13T11:24:08.838Z,21.7
2023-03-13T11:25:10.128Z,21.69
2023-03-13T11:26:10.293Z,21.59
2023-03-13T11:27:12.393Z,21.54
2023-03-13T11:28:12.768Z,21.58
2023-03-13T11:29:13.022Z,21.48
2023-03-13T11:30:14.294Z,21.47
2023-03-13T11:31:15.140Z,21.38
2023-03-13T11:32:15.330Z,21.29
2023-03-13T11:33:16.343Z,21.3
2023-03-13T11:34:17.000Z,21.38
2023-03-13T11:35:17.202Z,21.44
2023-03-13T11:36:18.344Z,21.48
2023-03-13T11:37:18.830Z,21.51
2023-03-13T11:38:19.398Z,21.54
2023-03-13T11:39:19.655Z,21.5
2023-03-13T11:40:20.357Z,21.32
2023-03-13T11:41:21.473Z,21.14
2023-03-13T11:42:21.954Z,21.13
2023-03-13T11:43:31.112Z,21.04
2023-03-13T11:44:23.178Z,20.9
2023-03-13T11:45:37.032Z,20.89
2023-03-13T11:46:25.238Z,20.78
2023-03-13T11:47:25.682Z,20.88
2023-03-13T11:48:25.781Z,20.82
2023-03-13T11:49:26.002Z,20.74
2023-03-13T11:50:27.178Z,20.71
2023-03-13T11:51:27.941Z,20.64
2023-03-13T11:52:28.119Z,20.58
2023-03-13T11:53:29.140Z,20.55
2023-03-13T11:54:29.751Z,20.55
2023-03-13T11:55:29.449Z,20.37
2023-03-13T11:56:30.430Z,20.3
2023-03-13T11:57:31.666Z,20.24
2023-03-13T11:58:32.254Z,20.19
2023-03-13T11:59:32.497Z,20.22
2023-03-13T12:00:33.497Z,20.19
2023-03-13T12:01:34.890Z,20.29
2023-03-13T12:02:35.725Z,20.26
2023-03-13T12:03:36.700Z,20.42
2023-03-13T12:04:37.606Z,20.4
2023-03-13T12:05:38.240Z,20.29
2023-03-13T12:06:39.410Z,20.24
2023-03-13T12:07:39.136Z,20.21
2023-03-13T12:08:39.378Z,20.22
2023-03-13T12:09:39.931Z,20.24
2023-03-13T12:10:40.455Z,20.26
2023-03-13T12:11:40.957Z,20.26
2023-03-13T12:12:41.848Z,20.27
2023-03-13T12:13:41.930Z,20.36
2023-03-13T12:14:42.606Z,20.42
2023-03-13T12:15:42.832Z,20.36
2023-03-13T12:16:43.761Z,20.26
2023-03-13T12:17:44.433Z,20.26
2023-03-13T12:18:45.320Z,20.37
2023-03-13T12:19:45.029Z,20.48
2023-03-13T12:20:46.293Z,20.42
2023-03-13T12:21:46.701Z,20.53
2023-03-13T12:22:47.416Z,20.67
2023-03-13T12:23:47.930Z,20.64
2023-03-13T12:24:48.839Z,20.64
2023-03-13T12:25:49.355Z,20.74
2023-03-13T12:26:49.809Z,20.71
2023-03-13T12:27:51.187Z,20.73
2023-03-13T12:28:51.879Z,20.67
2023-03-13T12:29:52.087Z,20.74
2023-03-13T12:30:52.659Z,20.75
2023-03-13T12:31:53.553Z,20.75
2023-03-13T12:32:54.118Z,20.68
2023-03-13T12:33:53.816Z,20.66
2023-03-13T12:34:54.817Z,20.63
2023-03-13T12:35:56.165Z,20.59
2023-03-13T12:36:56.036Z,20.6
2023-03-13T12:37:56.856Z,20.55
2023-03-13T12:38:58.075Z,20.5
2023-03-13T12:39:58.551Z,20.37
2023-03-13T12:40:59.612Z,20.34
2023-03-13T12:42:00.201Z,20.27
2023-03-13T12:43:00.791Z,20.44
2023-03-13T12:44:14.339Z,20.39
2023-03-13T12:45:02.032Z,20.34
2023-03-13T12:46:02.661Z,20.34
2023-03-13T12:47:03.240Z,20.4
2023-03-13T12:48:03.130Z,20.34
2023-03-13T12:49:04.108Z,20.33
2023-03-13T12:50:04.777Z,20.39
2023-03-13T12:51:05.720Z,20.37
2023-03-13T12:52:06.672Z,20.5
2023-03-13T12:53:07.935Z,20.55
2023-03-13T12:54:08.925Z,20.64
2023-03-13T12:55:09.118Z,20.74
2023-03-13T12:56:10.388Z,20.73
2023-03-13T12:57:11.349Z,20.74
2023-03-13T12:58:12.483Z,20.86
2023-03-13T12:59:13.030Z,20.92
2023-03-13T13:00:13.339Z,20.93
2023-03-13T13:01:13.446Z,20.96
2023-03-13T13:02:13.914Z,21
2023-03-13T13:03:14.422Z,21.04
2023-03-13T13:04:15.488Z,21.1
2023-03-13T13:05:16.188Z,21.19
2023-03-13T13:06:16.456Z,21.17
2023-03-13T13:07:17.418Z,21.15
2023-03-13T13:08:17.934Z,21.13
2023-03-13T13:09:19.190Z,21.2
2023-03-13T13:10:19.788Z,21.26
2023-03-13T13:11:21.572Z,21.41
2023-03-13T13:12:20.472Z,21.5
2023-03-13T13:13:20.793Z,21.51
2023-03-13T13:14:21.524Z,21.53
2023-03-13T13:15:21.503Z,21.47
2023-03-13T13:16:22.075Z,21.48
2023-03-13T13:17:22.396Z,21.6
2023-03-13T13:18:22.222Z,21.68
2023-03-13T13:19:23.467Z,21.6
2023-03-13T13:20:23.427Z,21.65